createdAt,value
2017-12-29T00:00:09.370Z,5.99
2017-12-29T00:00:49.937Z,5.9
2017-12-29T00:01:30.515Z,5.97
2017-12-29T00:02:11.038Z,5.85
2017-12-29T00:02:51.582Z,5.83
2017-12-29T00:03:32.142Z,5.82
2017-12-29T00:04:12.706Z,5.85
2017-12-29T00:04:53.265Z,6
2017-12-29T00:05:33.767Z,6
2017-12-29T00:06:14.323Z,6.06
2017-12-29T00:06:54.875Z,6.04
2017-12-29T00:07:35.417Z,6.06
2017-12-29T00:08:15.981Z,6.08
2017-12-29T00:08:56.545Z,6.12
2017-12-29T00:09:37.169Z,6.11
2017-12-29T00:10:17.725Z,6.09
2017-12-29T00:10:58.270Z,6.14
2017-12-29T00:11:38.809Z,6.01
2017-12-29T00:12:19.373Z,5.97
2017-12-29T00:12:59.935Z,6.06
2017-12-29T00:13:40.493Z,6.03
2017-12-29T00:14:21.074Z,6.03
2017-12-29T00:15:01.645Z,6.08
2017-12-29T00:15:42.191Z,6.06
2017-12-29T00:16:22.755Z,5.94
2017-12-29T00:17:03.281Z,6
2017-12-29T00:17:43.878Z,5.99
2017-12-29T00:18:24.477Z,6.04
2017-12-29T00:19:05.031Z,6.09
2017-12-29T00:19:45.633Z,6.08
2017-12-29T00:20:26.213Z,5.97
2017-12-29T00:21:06.808Z,5.96
2017-12-29T00:21:47.341Z,5.99
2017-12-29T00:22:27.953Z,5.9
2017-12-29T00:23:08.515Z,5.89
2017-12-29T00:23:49.089Z,5.86
2017-12-29T00:24:29.665Z,5.94
2017-12-29T00:25:10.272Z,5.85
2017-12-29T00:25:50.866Z,5.89
2017-12-29T00:26:31.402Z,5.94
2017-12-29T00:27:11.940Z,5.97
2017-12-29T00:27:52.497Z,5.99
2017-12-29T00:28:33.039Z,6.04
2017-12-29T00:29:13.595Z,6.09
2017-12-29T00:29:54.170Z,6.04
2017-12-29T00:30:34.696Z,6.04
2017-12-29T00:31:15.250Z,6.17
2017-12-29T00:31:55.831Z,6.14
2017-12-29T00:32:36.399Z,6.14
2017-12-29T00:33:17.009Z,6.11
2017-12-29T00:33:57.595Z,6.08
2017-12-29T00:34:38.124Z,6.15
2017-12-29T00:35:18.677Z,6.25
2017-12-29T00:35:59.244Z,6.15
2017-12-29T00:36:39.789Z,6.11
2017-12-29T00:37:20.351Z,6.14
2017-12-29T00:38:00.856Z,6.14
2017-12-29T00:38:41.412Z,6.18
2017-12-29T00:39:21.953Z,6.11
2017-12-29T00:40:02.539Z,6.11
2017-12-29T00:40:43.069Z,6.15
2017-12-29T00:41:23.664Z,6.21
2017-12-29T00:42:04.295Z,6.19
2017-12-29T00:42:44.857Z,6.25
2017-12-29T00:43:25.433Z,6.3
2017-12-29T00:44:06.024Z,6.38
2017-12-29T00:44:46.593Z,6.21
2017-12-29T00:45:27.161Z,6.3
2017-12-29T00:46:07.716Z,6.3
2017-12-29T00:46:48.257Z,6.14
2017-12-29T00:47:28.871Z,6.14
2017-12-29T00:48:09.446Z,6.12
2017-12-29T00:48:50.333Z,6.22
2017-12-29T00:49:30.922Z,6.19
2017-12-29T00:50:11.502Z,6.09
2017-12-29T00:50:52.041Z,6.11
2017-12-29T00:51:32.582Z,6.17
2017-12-29T00:52:13.160Z,6.09
2017-12-29T00:52:53.725Z,6.17
2017-12-29T00:53:34.252Z,6
2017-12-29T00:54:14.808Z,5.96
2017-12-29T00:54:55.347Z,6.03
2017-12-29T00:55:35.903Z,6.09
2017-12-29T00:56:16.480Z,6.03
2017-12-29T00:56:57.037Z,5.99
2017-12-29T00:57:37.592Z,5.93
2017-12-29T00:58:18.164Z,5.96
2017-12-29T00:58:58.684Z,6
2017-12-29T00:59:39.257Z,6
2017-12-29T01:00:19.808Z,5.99
2017-12-29T01:01:00.323Z,5.96
2017-12-29T01:01:40.872Z,5.93
2017-12-29T01:02:21.470Z,5.93
2017-12-29T01:03:02.061Z,5.94
2017-12-29T01:03:42.636Z,5.96
2017-12-29T01:04:23.187Z,5.86
2017-12-29T01:05:03.738Z,5.64
2017-12-29T01:05:44.277Z,5.81
2017-12-29T01:06:24.834Z,5.81
2017-12-29T01:07:05.381Z,5.89
2017-12-29T01:07:45.946Z,5.74
2017-12-29T01:08:26.475Z,5.85
2017-12-29T01:09:07.016Z,5.9
2017-12-29T01:09:47.570Z,5.91
2017-12-29T01:10:28.113Z,5.74
2017-12-29T01:11:08.669Z,5.72
2017-12-29T01:11:49.266Z,5.74
2017-12-29T01:12:29.816Z,5.78
2017-12-29T01:13:10.358Z,5.74
2017-12-29T01:13:50.930Z,5.67
2017-12-29T01:14:31.497Z,5.75
2017-12-29T01:15:12.035Z,5.72
2017-12-29T01:15:52.578Z,5.63
2017-12-29T01:16:33.129Z,5.68
2017-12-29T01:17:13.685Z,5.68
2017-12-29T01:17:54.227Z,5.68
2017-12-29T01:18:34.785Z,5.72
2017-12-29T01:19:15.352Z,5.64
2017-12-29T01:19:55.912Z,5.61
2017-12-29T01:20:36.464Z,5.68
2017-12-29T01:21:17.016Z,5.61
2017-12-29T01:21:57.547Z,5.51
2017-12-29T01:22:38.097Z,5.65
2017-12-29T01:23:18.649Z,5.54
2017-12-29T01:23:59.217Z,5.6
2017-12-29T01:24:39.756Z,5.61
2017-12-29T01:25:20.291Z,5.68
2017-12-29T01:26:00.851Z,5.61
2017-12-29T01:26:41.429Z,5.67
2017-12-29T01:27:21.975Z,5.63
2017-12-29T01:28:02.517Z,5.65
2017-12-29T01:28:43.077Z,5.61
2017-12-29T01:29:23.601Z,5.71
2017-12-29T01:30:04.150Z,5.65
2017-12-29T01:30:44.718Z,5.6
2017-12-29T01:31:25.267Z,5.71
2017-12-29T01:32:05.798Z,5.65
2017-12-29T01:32:46.363Z,5.64
2017-12-29T01:33:26.927Z,5.56
2017-12-29T01:34:07.461Z,5.75
2017-12-29T01:34:48.002Z,5.65
2017-12-29T01:35:28.549Z,5.72
2017-12-29T01:36:09.103Z,5.63
2017-12-29T01:36:49.656Z,5.64
2017-12-29T01:37:30.239Z,5.6
2017-12-29T01:38:10.790Z,5.63
2017-12-29T01:38:51.325Z,5.61
2017-12-29T01:39:31.881Z,5.56
2017-12-29T01:40:12.422Z,5.58
2017-12-29T01:40:53.024Z,5.58
2017-12-29T01:41:33.585Z,5.64
2017-12-29T01:42:14.149Z,5.61
2017-12-29T01:42:54.719Z,5.68
2017-12-29T01:43:35.271Z,5.67
2017-12-29T01:44:15.833Z,5.67
2017-12-29T01:44:56.397Z,5.64
2017-12-29T01:45:36.950Z,5.71
2017-12-29T01:46:17.517Z,5.74
2017-12-29T01:46:58.048Z,5.74
2017-12-29T01:47:38.582Z,5.58
2017-12-29T01:48:19.126Z,5.6
2017-12-29T01:48:59.685Z,5.61
2017-12-29T01:49:40.238Z,5.63
2017-12-29T01:50:20.779Z,5.61
2017-12-29T01:51:01.320Z,5.63
2017-12-29T01:51:41.884Z,5.63
2017-12-29T01:52:22.454Z,5.54
2017-12-29T01:53:02.989Z,5.53
2017-12-29T01:53:43.559Z,5.51
2017-12-29T01:54:24.097Z,5.57
2017-12-29T01:55:04.642Z,5.56
2017-12-29T01:55:45.201Z,5.72
2017-12-29T01:56:25.753Z,5.6
2017-12-29T01:57:06.318Z,5.67
2017-12-29T01:57:46.883Z,5.46
2017-12-29T01:58:27.460Z,5.49
2017-12-29T01:59:07.983Z,5.54
2017-12-29T01:59:48.547Z,5.64
2017-12-29T02:00:29.099Z,5.64
2017-12-29T02:01:09.643Z,5.58
2017-12-29T02:01:50.203Z,5.58
2017-12-29T02:02:30.786Z,5.56
2017-12-29T02:03:11.330Z,5.57
2017-12-29T02:03:51.912Z,5.54
2017-12-29T02:04:32.532Z,5.6
2017-12-29T02:05:13.085Z,5.57
2017-12-29T02:05:53.644Z,5.54
2017-12-29T02:06:34.202Z,5.71
2017-12-29T02:07:14.768Z,5.64
2017-12-29T02:07:55.336Z,5.67
2017-12-29T02:08:35.903Z,5.74
2017-12-29T02:09:16.429Z,5.65
2017-12-29T02:09:57.027Z,5.89
2017-12-29T02:10:37.674Z,5.75
2017-12-29T02:11:18.173Z,5.82
2017-12-29T02:11:58.732Z,5.79
2017-12-29T02:12:39.281Z,5.9
2017-12-29T02:13:19.818Z,5.75
2017-12-29T02:14:00.314Z,5.75
2017-12-29T02:14:40.904Z,5.78
2017-12-29T02:15:21.413Z,5.78
2017-12-29T02:16:01.958Z,5.74
2017-12-29T02:16:42.464Z,5.79
2017-12-29T02:17:23.002Z,5.85
2017-12-29T02:18:03.542Z,5.83
2017-12-29T02:18:44.114Z,5.68
2017-12-29T02:19:24.656Z,5.64
2017-12-29T02:20:05.206Z,5.82
2017-12-29T02:20:45.754Z,5.67
2017-12-29T02:21:26.293Z,5.58
2017-12-29T02:22:06.866Z,5.6
2017-12-29T02:22:47.433Z,5.67
2017-12-29T02:23:27.986Z,5.68
2017-12-29T02:24:08.542Z,5.71
2017-12-29T02:24:49.090Z,5.68
2017-12-29T02:25:29.642Z,5.78
2017-12-29T02:26:10.188Z,5.78
2017-12-29T02:26:50.741Z,5.81
2017-12-29T02:27:31.336Z,5.72
2017-12-29T02:28:11.868Z,5.75
2017-12-29T02:28:52.430Z,5.86
2017-12-29T02:29:33.014Z,5.85
2017-12-29T02:30:13.569Z,5.85
2017-12-29T02:30:54.127Z,5.74
2017-12-29T02:31:34.695Z,5.89
2017-12-29T02:32:15.244Z,5.83
2017-12-29T02:32:55.802Z,5.89
2017-12-29T02:33:36.369Z,5.82
2017-12-29T02:34:16.894Z,5.79
2017-12-29T02:34:57.462Z,5.71
2017-12-29T02:35:37.995Z,5.76
2017-12-29T02:36:18.532Z,5.86
2017-12-29T02:36:59.103Z,5.9
2017-12-29T02:37:39.659Z,5.93
2017-12-29T02:38:20.222Z,6
2017-12-29T02:39:00.750Z,5.93
2017-12-29T02:39:41.394Z,5.85
2017-12-29T02:40:21.923Z,5.86
2017-12-29T02:41:02.456Z,5.75
2017-12-29T02:41:42.997Z,5.76
2017-12-29T02:42:23.482Z,5.82
2017-12-29T02:43:04.117Z,5.82
2017-12-29T02:43:44.629Z,5.86
2017-12-29T02:44:25.181Z,5.83
2017-12-29T02:45:05.747Z,5.85
2017-12-29T02:45:46.350Z,5.93
2017-12-29T02:46:26.948Z,5.85
2017-12-29T02:47:07.499Z,5.9
2017-12-29T02:47:47.952Z,5.75
2017-12-29T02:48:28.507Z,5.85
2017-12-29T02:49:09.030Z,5.89
2017-12-29T02:49:49.572Z,5.91
2017-12-29T02:50:30.127Z,5.89
2017-12-29T02:51:10.682Z,5.85
2017-12-29T02:51:51.239Z,5.86
2017-12-29T02:52:31.793Z,5.9
2017-12-29T02:53:12.340Z,5.75
2017-12-29T02:53:52.887Z,5.85
2017-12-29T02:54:33.439Z,5.82
2017-12-29T02:55:13.983Z,5.74
2017-12-29T02:55:54.542Z,5.79
2017-12-29T02:56:35.100Z,5.86
2017-12-29T02:57:15.625Z,5.93
2017-12-29T02:57:56.182Z,5.85
2017-12-29T02:58:36.691Z,5.85
2017-12-29T02:59:17.217Z,5.91
2017-12-29T02:59:57.785Z,5.86
2017-12-29T03:00:38.307Z,5.83
2017-12-29T03:01:18.871Z,5.79
2017-12-29T03:01:59.435Z,5.86
2017-12-29T03:02:39.980Z,5.99
2017-12-29T03:03:20.524Z,5.96
2017-12-29T03:04:01.098Z,5.97
2017-12-29T03:04:41.628Z,5.91
2017-12-29T03:05:22.807Z,5.89
2017-12-29T03:06:03.405Z,5.79
2017-12-29T03:06:43.968Z,5.83
2017-12-29T03:07:24.523Z,5.9
2017-12-29T03:08:05.057Z,5.93
2017-12-29T03:08:45.629Z,5.96
2017-12-29T03:09:26.186Z,5.83
2017-12-29T03:10:06.736Z,5.89
2017-12-29T03:10:47.278Z,5.97
2017-12-29T03:11:27.841Z,5.94
2017-12-29T03:12:08.390Z,5.81
2017-12-29T03:12:48.963Z,5.79
2017-12-29T03:13:29.533Z,5.81
2017-12-29T03:14:10.114Z,5.91
2017-12-29T03:14:50.620Z,5.9
2017-12-29T03:15:31.170Z,5.89
2017-12-29T03:16:11.708Z,5.83
2017-12-29T03:16:52.277Z,5.85
2017-12-29T03:17:32.833Z,5.94
2017-12-29T03:18:13.365Z,5.79
2017-12-29T03:18:53.945Z,5.83
2017-12-29T03:19:34.499Z,5.86
2017-12-29T03:20:15.054Z,5.9
2017-12-29T03:20:55.589Z,5.99
2017-12-29T03:21:36.146Z,6
2017-12-29T03:22:16.705Z,6.06
2017-12-29T03:22:57.228Z,6
2017-12-29T03:23:37.792Z,6
2017-12-29T03:24:18.355Z,6.11
2017-12-29T03:24:58.873Z,6.03
2017-12-29T03:25:39.445Z,6
2017-12-29T03:26:19.978Z,5.94
2017-12-29T03:27:00.587Z,6.04
2017-12-29T03:27:41.049Z,5.94
2017-12-29T03:28:21.601Z,5.94
2017-12-29T03:29:02.171Z,5.79
2017-12-29T03:29:42.727Z,5.76
2017-12-29T03:30:23.280Z,5.79
2017-12-29T03:31:03.836Z,5.83
2017-12-29T03:31:44.390Z,5.82
2017-12-29T03:32:24.950Z,5.93
2017-12-29T03:33:05.491Z,5.86
2017-12-29T03:33:46.037Z,5.96
2017-12-29T03:34:26.633Z,5.83
2017-12-29T03:35:07.183Z,5.81
2017-12-29T03:35:47.738Z,5.96
2017-12-29T03:36:28.287Z,5.97
2017-12-29T03:37:08.809Z,5.99
2017-12-29T03:37:49.346Z,5.89
2017-12-29T03:38:29.888Z,5.83
2017-12-29T03:39:10.435Z,5.76
2017-12-29T03:39:50.981Z,5.89
2017-12-29T03:40:31.512Z,5.83
2017-12-29T03:41:12.123Z,5.83
2017-12-29T03:41:52.694Z,5.96
2017-12-29T03:42:33.186Z,5.96
2017-12-29T03:43:13.724Z,5.97
2017-12-29T03:43:54.311Z,6.14
2017-12-29T03:44:34.815Z,6.01
2017-12-29T03:45:15.372Z,5.9
2017-12-29T03:45:55.881Z,5.86
2017-12-29T03:46:36.431Z,5.83
2017-12-29T03:47:16.964Z,5.86
2017-12-29T03:47:57.578Z,5.85
2017-12-29T03:48:38.098Z,5.79
2017-12-29T03:49:18.676Z,5.89
2017-12-29T03:49:59.333Z,5.96
2017-12-29T03:50:39.845Z,6.03
2017-12-29T03:51:20.417Z,6.08
2017-12-29T03:52:01.029Z,6.15
2017-12-29T03:52:41.549Z,6.08
2017-12-29T03:53:22.079Z,6.18
2017-12-29T03:54:02.624Z,6.15
2017-12-29T03:54:43.167Z,6.14
2017-12-29T03:55:23.713Z,6.06
2017-12-29T03:56:04.268Z,6.15
2017-12-29T03:56:44.840Z,6.25
2017-12-29T03:57:25.429Z,6.17
2017-12-29T03:58:05.896Z,6.17
2017-12-29T03:58:46.463Z,6.06
2017-12-29T03:59:27.008Z,6.04
2017-12-29T04:00:07.561Z,6.14
2017-12-29T04:00:48.180Z,6.03
2017-12-29T04:01:28.749Z,6.09
2017-12-29T04:02:09.380Z,6.08
2017-12-29T04:02:49.939Z,6.04
2017-12-29T04:03:30.555Z,6.12
2017-12-29T04:04:11.130Z,6.19
2017-12-29T04:04:51.688Z,6.19
2017-12-29T04:05:32.237Z,6.33
2017-12-29T04:06:12.881Z,6.25
2017-12-29T04:06:53.466Z,6.25
2017-12-29T04:07:34.051Z,6.31
2017-12-29T04:08:14.516Z,6.31
2017-12-29T04:08:55.108Z,6.28
2017-12-29T04:09:35.596Z,6.27
2017-12-29T04:10:16.157Z,6.25
2017-12-29T04:10:56.692Z,6.28
2017-12-29T04:11:37.310Z,6.18
2017-12-29T04:12:17.815Z,6.12
2017-12-29T04:12:58.359Z,6.21
2017-12-29T04:13:38.948Z,6.18
2017-12-29T04:14:19.471Z,6.09
2017-12-29T04:15:00.044Z,6.08
2017-12-29T04:15:40.590Z,6.09
2017-12-29T04:16:21.126Z,6.08
2017-12-29T04:17:01.697Z,6.08
2017-12-29T04:17:42.223Z,6.12
2017-12-29T04:18:22.761Z,6.11
2017-12-29T04:19:03.316Z,6.03
2017-12-29T04:19:43.858Z,6.01
2017-12-29T04:20:24.426Z,6.11
2017-12-29T04:21:04.968Z,6.09
2017-12-29T04:21:45.511Z,6.12
2017-12-29T04:22:26.054Z,6.12
2017-12-29T04:23:06.614Z,6.09
2017-12-29T04:23:47.162Z,5.99
2017-12-29T04:24:27.721Z,6.06
2017-12-29T04:25:08.248Z,5.96
2017-12-29T04:25:48.798Z,6.08
2017-12-29T04:26:29.345Z,6.14
2017-12-29T04:27:09.899Z,6.12
2017-12-29T04:27:50.469Z,6.04
2017-12-29T04:28:31.000Z,5.93
2017-12-29T04:29:11.571Z,6.03
2017-12-29T04:29:52.118Z,6.11
2017-12-29T04:30:32.710Z,6.04
2017-12-29T04:31:13.274Z,6.01
2017-12-29T04:31:53.809Z,6.03
2017-12-29T04:32:34.374Z,5.97
2017-12-29T04:33:14.907Z,5.83
2017-12-29T04:33:55.461Z,5.97
2017-12-29T04:34:35.995Z,5.94
2017-12-29T04:35:16.537Z,5.91
2017-12-29T04:35:57.076Z,5.99
2017-12-29T04:36:37.642Z,5.99
2017-12-29T04:37:18.175Z,5.93
2017-12-29T04:37:58.703Z,5.97
2017-12-29T04:38:39.263Z,6.06
2017-12-29T04:39:19.818Z,5.96
2017-12-29T04:40:00.388Z,5.96
2017-12-29T04:40:41.046Z,5.91
2017-12-29T04:41:21.737Z,6.06
2017-12-29T04:42:02.350Z,6
2017-12-29T04:42:42.827Z,5.99
2017-12-29T04:43:23.332Z,5.91
2017-12-29T04:44:04.036Z,5.82
2017-12-29T04:44:44.559Z,5.78
2017-12-29T04:45:25.168Z,5.82
2017-12-29T04:46:05.749Z,5.83
2017-12-29T04:46:46.266Z,5.89
2017-12-29T04:47:26.880Z,5.82
2017-12-29T04:48:07.508Z,5.86
2017-12-29T04:48:48.086Z,5.93
2017-12-29T04:49:28.753Z,5.81
2017-12-29T04:50:09.245Z,5.82
2017-12-29T04:50:49.796Z,5.71
2017-12-29T04:51:30.352Z,5.79
2017-12-29T04:52:10.906Z,5.83
2017-12-29T04:52:51.466Z,5.82
2017-12-29T04:53:32.014Z,5.85
2017-12-29T04:54:12.590Z,5.9
2017-12-29T04:54:53.151Z,5.85
2017-12-29T04:55:33.681Z,5.91
2017-12-29T04:56:14.189Z,5.91
2017-12-29T04:56:54.755Z,5.96
2017-12-29T04:57:35.276Z,5.96
2017-12-29T04:58:15.845Z,6.03
2017-12-29T04:58:56.358Z,5.99
2017-12-29T04:59:36.888Z,6.01
2017-12-29T05:00:17.425Z,6.04
2017-12-29T05:00:57.978Z,6.14
2017-12-29T05:01:38.524Z,6.17
2017-12-29T05:02:19.075Z,6.19
2017-12-29T05:02:59.627Z,6.21
2017-12-29T05:03:40.163Z,6.25
2017-12-29T05:04:20.722Z,6.17
2017-12-29T05:05:01.293Z,6.3
2017-12-29T05:05:41.843Z,6.28
2017-12-29T05:06:22.383Z,6.28
2017-12-29T05:07:02.943Z,6.28
2017-12-29T05:07:43.498Z,6.15
2017-12-29T05:08:24.026Z,6.34
2017-12-29T05:09:04.606Z,6.11
2017-12-29T05:09:45.155Z,6.34
2017-12-29T05:10:26.327Z,6.22
2017-12-29T05:11:06.262Z,6.22
2017-12-29T05:11:46.805Z,6.31
2017-12-29T05:12:27.362Z,6.25
2017-12-29T05:13:07.902Z,6.22
2017-12-29T05:13:48.467Z,6.22
2017-12-29T05:14:29.022Z,6.31
2017-12-29T05:15:09.576Z,6.28
2017-12-29T05:15:50.086Z,6.31
2017-12-29T05:16:30.635Z,6.21
2017-12-29T05:17:11.205Z,6.27
2017-12-29T05:17:51.753Z,6.25
2017-12-29T05:18:32.335Z,6.12
2017-12-29T05:19:12.868Z,6.28
2017-12-29T05:19:53.431Z,6.21
2017-12-29T05:20:33.982Z,6.25
2017-12-29T05:21:14.530Z,6.28
2017-12-29T05:21:55.084Z,6.17
2017-12-29T05:22:35.641Z,6.21
2017-12-29T05:23:16.205Z,6.18
2017-12-29T05:23:56.735Z,6.28
2017-12-29T05:24:37.289Z,6.25
2017-12-29T05:25:17.858Z,6.19
2017-12-29T05:25:58.422Z,6.14
2017-12-29T05:26:38.973Z,6.19
2017-12-29T05:27:19.526Z,6.21
2017-12-29T05:28:00.077Z,6.22
2017-12-29T05:28:40.632Z,6.18
2017-12-29T05:29:21.192Z,6.27
2017-12-29T05:30:01.746Z,6.21
2017-12-29T05:30:42.314Z,6.25
2017-12-29T05:31:22.873Z,6.19
2017-12-29T05:32:03.409Z,6.19
2017-12-29T05:32:43.966Z,6.19
2017-12-29T05:33:24.518Z,6.25
2017-12-29T05:34:05.056Z,6.17
2017-12-29T05:34:45.591Z,6.17
2017-12-29T05:35:26.158Z,6.25
2017-12-29T05:36:06.719Z,6.18
2017-12-29T05:36:47.273Z,6.17
2017-12-29T05:37:27.818Z,6.15
2017-12-29T05:38:08.406Z,6.21
2017-12-29T05:38:48.898Z,6.08
2017-12-29T05:39:29.471Z,6.06
2017-12-29T05:40:10.109Z,6.12
2017-12-29T05:40:50.626Z,6.11
2017-12-29T05:41:31.195Z,6.12
2017-12-29T05:42:11.771Z,6.08
2017-12-29T05:42:52.331Z,6.03
2017-12-29T05:43:32.891Z,6.18
2017-12-29T05:44:13.434Z,6.14
2017-12-29T05:44:53.968Z,6.12
2017-12-29T05:45:34.499Z,6.08
2017-12-29T05:46:15.045Z,6.06
2017-12-29T05:46:55.601Z,6.11
2017-12-29T05:47:36.155Z,6.15
2017-12-29T05:48:16.697Z,6.17
2017-12-29T05:48:57.250Z,5.99
2017-12-29T05:49:37.798Z,6.17
2017-12-29T05:50:18.362Z,6.21
2017-12-29T05:50:58.888Z,6.12
2017-12-29T05:51:39.432Z,6.21
2017-12-29T05:52:19.995Z,6.19
2017-12-29T05:53:00.551Z,6.15
2017-12-29T05:53:41.105Z,6.21
2017-12-29T05:54:21.660Z,6.19
2017-12-29T05:55:02.230Z,6.09
2017-12-29T05:55:42.786Z,6.25
2017-12-29T05:56:23.333Z,6.19
2017-12-29T05:57:03.858Z,6.17
2017-12-29T05:57:44.430Z,6.03
2017-12-29T05:58:24.984Z,6.03
2017-12-29T05:59:05.554Z,5.83
2017-12-29T05:59:46.159Z,5.89
2017-12-29T06:00:27.339Z,5.83
2017-12-29T06:01:07.886Z,5.94
2017-12-29T06:01:48.439Z,5.89
2017-12-29T06:02:28.982Z,5.82
2017-12-29T06:03:09.533Z,5.78
2017-12-29T06:03:50.094Z,5.82
2017-12-29T06:04:30.630Z,5.86
2017-12-29T06:05:11.180Z,5.96
2017-12-29T06:05:51.731Z,6
2017-12-29T06:06:32.297Z,6.03
2017-12-29T06:07:12.860Z,6.04
2017-12-29T06:07:53.411Z,5.99
2017-12-29T06:08:33.965Z,6.01
2017-12-29T06:09:14.491Z,6
2017-12-29T06:09:55.035Z,6.03
2017-12-29T06:10:35.594Z,5.96
2017-12-29T06:11:16.146Z,6.04
2017-12-29T06:11:56.715Z,5.67
2017-12-29T06:12:37.247Z,5.85
2017-12-29T06:13:17.801Z,5.93
2017-12-29T06:13:58.376Z,5.93
2017-12-29T06:14:38.938Z,6.01
2017-12-29T06:15:19.488Z,6.06
2017-12-29T06:16:00.029Z,6.04
2017-12-29T06:16:40.565Z,6.08
2017-12-29T06:17:21.125Z,6.09
2017-12-29T06:18:01.642Z,5.99
2017-12-29T06:18:42.209Z,6.12
2017-12-29T06:19:22.757Z,6.12
2017-12-29T06:20:03.312Z,6.09
2017-12-29T06:20:43.862Z,6.09
2017-12-29T06:21:24.417Z,6.08
2017-12-29T06:22:04.965Z,6.09
2017-12-29T06:22:45.512Z,6.17
2017-12-29T06:23:26.062Z,6.19
2017-12-29T06:24:06.599Z,6.12
2017-12-29T06:24:47.153Z,6.19
2017-12-29T06:25:27.705Z,6.27
2017-12-29T06:26:08.253Z,5.97
2017-12-29T06:26:48.808Z,6.12
2017-12-29T06:27:29.352Z,6.19
2017-12-29T06:28:09.913Z,6.15
2017-12-29T06:28:50.458Z,6.08
2017-12-29T06:29:31.016Z,6.18
2017-12-29T06:30:11.565Z,6.15
2017-12-29T06:30:52.113Z,6.12
2017-12-29T06:31:32.679Z,6.12
2017-12-29T06:32:13.207Z,6.06
2017-12-29T06:32:53.757Z,6.14
2017-12-29T06:33:34.307Z,6.17
2017-12-29T06:34:14.854Z,6.17
2017-12-29T06:34:55.386Z,6.19
2017-12-29T06:35:35.935Z,6.11
2017-12-29T06:36:16.500Z,6.17
2017-12-29T06:36:57.039Z,6.09
2017-12-29T06:37:37.606Z,6.17
2017-12-29T06:38:18.173Z,6.11
2017-12-29T06:38:58.726Z,6.15
2017-12-29T06:39:39.270Z,6.08
2017-12-29T06:40:19.812Z,6.14
2017-12-29T06:41:00.368Z,6.14
2017-12-29T06:41:40.935Z,6.01
2017-12-29T06:42:21.484Z,6.11
2017-12-29T06:43:02.043Z,6.17
2017-12-29T06:43:42.593Z,6.15
2017-12-29T06:44:23.134Z,6.21
2017-12-29T06:45:03.677Z,6.09
2017-12-29T06:45:44.227Z,6.12
2017-12-29T06:46:24.787Z,6.14
2017-12-29T06:47:05.324Z,6.21
2017-12-29T06:47:45.908Z,6.01
2017-12-29T06:48:26.476Z,6.14
2017-12-29T06:49:07.009Z,6.08
2017-12-29T06:49:47.548Z,6.08
2017-12-29T06:50:28.090Z,6.09
2017-12-29T06:51:08.641Z,6.14
2017-12-29T06:51:49.239Z,6.15
2017-12-29T06:52:29.767Z,6.08
2017-12-29T06:53:10.326Z,6.06
2017-12-29T06:53:50.878Z,6.06
2017-12-29T06:54:31.427Z,6.03
2017-12-29T06:55:11.979Z,6.06
2017-12-29T06:55:52.509Z,5.99
2017-12-29T06:56:33.044Z,5.99
2017-12-29T06:57:13.598Z,5.99
2017-12-29T06:57:54.148Z,5.93
2017-12-29T06:58:34.693Z,5.97
2017-12-29T06:59:15.264Z,5.96
2017-12-29T06:59:55.813Z,6.01
2017-12-29T07:00:36.361Z,5.99
2017-12-29T07:01:16.909Z,5.93
2017-12-29T07:01:57.456Z,5.96
2017-12-29T07:02:38.015Z,6.03
2017-12-29T07:03:18.562Z,6.06
2017-12-29T07:03:59.118Z,6.03
2017-12-29T07:04:39.683Z,6.03
2017-12-29T07:05:20.220Z,6.17
2017-12-29T07:06:00.770Z,6.03
2017-12-29T07:06:41.436Z,6.03
2017-12-29T07:07:22.724Z,5.94
2017-12-29T07:08:03.281Z,5.97
2017-12-29T07:08:44.843Z,5.93
2017-12-29T07:09:25.617Z,5.91
2017-12-29T07:10:06.250Z,5.83
2017-12-29T07:10:46.774Z,5.79
2017-12-29T07:11:27.284Z,5.67
2017-12-29T07:12:07.827Z,5.65
2017-12-29T07:12:48.375Z,5.74
2017-12-29T07:13:28.917Z,5.79
2017-12-29T07:14:09.493Z,5.82
2017-12-29T07:14:50.097Z,5.75
2017-12-29T07:15:30.586Z,5.71
2017-12-29T07:16:11.135Z,5.75
2017-12-29T07:16:51.686Z,5.82
2017-12-29T07:17:32.256Z,5.74
2017-12-29T07:18:12.816Z,5.65
2017-12-29T07:18:53.372Z,5.71
2017-12-29T07:19:33.933Z,5.71
2017-12-29T07:20:15.046Z,5.72
2017-12-29T07:20:55.598Z,5.61
2017-12-29T07:21:36.181Z,5.65
2017-12-29T07:22:16.723Z,5.72
2017-12-29T07:22:57.331Z,5.75
2017-12-29T07:23:37.812Z,5.68
2017-12-29T07:24:18.382Z,5.72
2017-12-29T07:24:58.954Z,5.74
2017-12-29T07:25:39.491Z,5.89
2017-12-29T07:26:20.035Z,5.83
2017-12-29T07:27:00.589Z,5.81
2017-12-29T07:27:41.104Z,5.81
2017-12-29T07:28:22.686Z,5.9
2017-12-29T07:29:03.239Z,5.83
2017-12-29T07:29:43.781Z,5.9
2017-12-29T07:30:24.346Z,5.6
2017-12-29T07:31:04.912Z,5.67
2017-12-29T07:31:45.469Z,5.79
2017-12-29T07:32:26.016Z,5.81
2017-12-29T07:33:06.574Z,5.83
2017-12-29T07:33:47.112Z,5.86
2017-12-29T07:34:27.992Z,5.93
2017-12-29T07:35:08.535Z,5.96
2017-12-29T07:35:49.101Z,5.9
2017-12-29T07:36:29.663Z,5.94
2017-12-29T07:37:10.205Z,6
2017-12-29T07:37:50.765Z,6.01
2017-12-29T07:38:31.319Z,6.03
2017-12-29T07:39:11.853Z,5.99
2017-12-29T07:39:52.396Z,6
2017-12-29T07:40:32.926Z,6.06
2017-12-29T07:42:14.426Z,6.09
2017-12-29T07:42:54.965Z,6.04
2017-12-29T07:43:35.525Z,5.93
2017-12-29T07:44:16.061Z,5.97
2017-12-29T07:44:56.619Z,5.79
2017-12-29T07:45:37.166Z,5.86
2017-12-29T07:46:17.739Z,5.74
2017-12-29T07:46:58.291Z,5.79
2017-12-29T07:47:38.843Z,5.83
2017-12-29T07:48:19.390Z,5.81
2017-12-29T07:48:59.981Z,5.97
2017-12-29T07:49:40.543Z,5.9
2017-12-29T07:50:21.087Z,5.91
2017-12-29T07:51:01.647Z,5.97
2017-12-29T07:51:42.203Z,5.96
2017-12-29T07:52:22.778Z,5.99
2017-12-29T07:53:03.320Z,6
2017-12-29T07:53:43.881Z,5.96
2017-12-29T07:54:24.431Z,5.94
2017-12-29T07:55:05.000Z,6.09
2017-12-29T07:55:45.552Z,6.08
2017-12-29T07:56:26.144Z,6.09
2017-12-29T07:57:06.720Z,6.11
2017-12-29T07:57:47.282Z,6.15
2017-12-29T07:58:27.861Z,6.17
2017-12-29T07:59:08.413Z,6.18
2017-12-29T07:59:48.976Z,6.09
2017-12-29T08:00:29.536Z,6.08
2017-12-29T08:01:10.921Z,6.04
2017-12-29T08:01:51.485Z,6.08
2017-12-29T08:02:32.039Z,6.15
2017-12-29T08:03:12.618Z,6.19
2017-12-29T08:03:53.176Z,6.12
2017-12-29T08:04:33.732Z,6.15
2017-12-29T08:05:14.344Z,6.11
2017-12-29T08:05:54.928Z,6.19
2017-12-29T08:06:35.478Z,6.12
2017-12-29T08:07:16.046Z,6.25
2017-12-29T08:07:56.609Z,6.09
2017-12-29T08:08:37.161Z,6.18
2017-12-29T08:09:17.709Z,6.28
2017-12-29T08:09:58.276Z,6.38
2017-12-29T08:10:38.889Z,6.33
2017-12-29T08:11:19.446Z,6.31
2017-12-29T08:12:00.025Z,6.27
2017-12-29T08:12:40.575Z,6.31
2017-12-29T08:13:21.127Z,6.12
2017-12-29T08:14:01.684Z,6.22
2017-12-29T08:14:42.232Z,6.25
2017-12-29T08:15:22.784Z,6.27
2017-12-29T08:16:03.414Z,6.28
2017-12-29T08:16:43.960Z,6.33
2017-12-29T08:17:24.544Z,6.31
2017-12-29T08:18:05.096Z,6.46
2017-12-29T08:18:45.663Z,6.37
2017-12-29T08:19:26.234Z,6.4
2017-12-29T08:20:06.749Z,6.46
2017-12-29T08:20:47.274Z,6.21
2017-12-29T08:21:27.820Z,6.28
2017-12-29T08:22:08.417Z,6.27
2017-12-29T08:22:48.977Z,6.31
2017-12-29T08:23:29.562Z,6.31
2017-12-29T08:24:10.076Z,6.27
2017-12-29T08:24:50.631Z,6.37
2017-12-29T08:25:31.187Z,6.44
2017-12-29T08:26:11.733Z,6.4
2017-12-29T08:26:52.294Z,6.34
2017-12-29T08:27:32.898Z,6.27
2017-12-29T08:28:14.224Z,6.22
2017-12-29T08:28:54.023Z,6.27
2017-12-29T08:29:34.597Z,6.22
2017-12-29T08:30:15.187Z,6.25
2017-12-29T08:30:55.742Z,6.22
2017-12-29T08:31:36.307Z,6.19
2017-12-29T08:32:16.857Z,6.28
2017-12-29T08:32:57.408Z,6.28
2017-12-29T08:33:37.965Z,6.27
2017-12-29T08:34:18.510Z,6.22
2017-12-29T08:34:59.061Z,6.37
2017-12-29T08:35:39.588Z,6.38
2017-12-29T08:36:20.157Z,6.3
2017-12-29T08:37:00.717Z,6.31
2017-12-29T08:37:41.290Z,6.22
2017-12-29T08:38:21.838Z,6.19
2017-12-29T08:39:02.423Z,6.11
2017-12-29T08:39:42.989Z,6.27
2017-12-29T08:40:23.550Z,6.15
2017-12-29T08:41:04.102Z,6.31
2017-12-29T08:41:44.715Z,6.33
2017-12-29T08:42:25.238Z,6.37
2017-12-29T08:43:05.806Z,6.43
2017-12-29T08:43:46.337Z,6.33
2017-12-29T08:44:26.902Z,6.28
2017-12-29T08:45:07.423Z,6.27
2017-12-29T08:45:48.907Z,6.12
2017-12-29T08:46:29.447Z,6.25
2017-12-29T08:47:09.961Z,6.17
2017-12-29T08:47:50.454Z,6.14
2017-12-29T08:48:30.992Z,6.27
2017-12-29T08:49:11.674Z,6.19
2017-12-29T08:49:52.263Z,6.31
2017-12-29T08:50:32.797Z,6.27
2017-12-29T08:51:13.248Z,6.22
2017-12-29T08:51:53.780Z,6.25
2017-12-29T08:52:34.310Z,6.15
2017-12-29T08:53:14.855Z,6.22
2017-12-29T08:53:55.411Z,6.18
2017-12-29T08:54:35.980Z,6.21
2017-12-29T08:55:16.540Z,6.21
2017-12-29T08:55:57.089Z,6.15
2017-12-29T08:56:37.640Z,6.11
2017-12-29T08:57:18.196Z,6.06
2017-12-29T08:57:58.754Z,6.09
2017-12-29T08:58:39.319Z,6.06
2017-12-29T08:59:19.877Z,5.97
2017-12-29T09:00:00.970Z,5.99
2017-12-29T09:00:41.575Z,6
2017-12-29T09:01:22.132Z,6.08
2017-12-29T09:02:02.697Z,6.14
2017-12-29T09:02:43.269Z,6.04